sensor_id;sensor_type;location;lat;lon;timestamp;P1;durP1;ratioP1;P2;durP2;ratioP2
65658;SDS011;60181;53.258;6.932;2022-09-12T00:04:23;8.30;;;4.90;;
65658;SDS011;60181;53.258;6.932;2022-09-12T00:08:55;8.50;;;4.80;;
65658;SDS011;60181;53.258;6.932;2022-09-12T00:13:19;8.50;;;4.80;;
65658;SDS011;60181;53.258;6.932;2022-09-12T00:17:47;11.40;;;5.10;;
65658;SDS011;60181;53.258;6.932;2022-09-12T00:22:15;11.40;;;5.10;;
65658;SDS011;60181;53.258;6.932;2022-09-12T00:26:43;11.40;;;5.10;;
65658;SDS011;60181;53.258;6.932;2022-09-12T00:31:12;11.40;;;5.10;;
65658;SDS011;60181;53.258;6.932;2022-09-12T00:35:40;11.40;;;5.10;;
65658;SDS011;60181;53.258;6.932;2022-09-12T00:40:07;9.80;;;5.50;;
65658;SDS011;60181;53.258;6.932;2022-09-12T00:44:42;9.80;;;5.50;;
65658;SDS011;60181;53.258;6.932;2022-09-12T00:49:09;10.20;;;5.10;;
65658;SDS011;60181;53.258;6.932;2022-09-12T00:53:31;10.20;;;5.10;;
65658;SDS011;60181;53.258;6.932;2022-09-12T00:58:01;10.70;;;5.20;;
65658;SDS011;60181;53.258;6.932;2022-09-12T01:02:27;10.70;;;5.20;;
65658;SDS011;60181;53.258;6.932;2022-09-12T01:06:56;8.00;;;5.30;;
65658;SDS011;60181;53.258;6.932;2022-09-12T01:11:23;8.00;;;5.30;;
65658;SDS011;60181;53.258;6.932;2022-09-12T01:15:51;8.00;;;5.30;;
65658;SDS011;60181;53.258;6.932;2022-09-12T01:24:51;8.00;;;5.90;;
65658;SDS011;60181;53.258;6.932;2022-09-12T01:29:21;10.30;;;6.30;;
65658;SDS011;60181;53.258;6.932;2022-09-12T01:33:54;10.30;;;6.30;;
65658;SDS011;60181;53.258;6.932;2022-09-12T01:42:44;12.90;;;7.00;;
65658;SDS011;60181;53.258;6.932;2022-09-12T01:47:11;9.90;;;6.70;;
65658;SDS011;60181;53.258;6.932;2022-09-12T01:51:38;9.90;;;6.70;;
65658;SDS011;60181;53.258;6.932;2022-09-12T01:56:08;9.90;;;6.70;;
65658;SDS011;60181;53.258;6.932;2022-09-12T02:00:36;10.80;;;7.20;;
65658;SDS011;60181;53.258;6.932;2022-09-12T02:09:33;11.70;;;7.10;;
65658;SDS011;60181;53.258;6.932;2022-09-12T02:13:56;11.70;;;7.10;;
65658;SDS011;60181;53.258;6.932;2022-09-12T02:18:23;11.70;;;8.10;;
65658;SDS011;60181;53.258;6.932;2022-09-12T02:22:51;11.70;;;8.10;;
65658;SDS011;60181;53.258;6.932;2022-09-12T02:27:20;12.70;;;7.40;;
65658;SDS011;60181;53.258;6.932;2022-09-12T02:31:48;12.70;;;7.40;;
65658;SDS011;60181;53.258;6.932;2022-09-12T02:40:43;12.00;;;7.90;;
65658;SDS011;60181;53.258;6.932;2022-09-12T02:45:11;12.00;;;7.90;;
65658;SDS011;60181;53.258;6.932;2022-09-12T02:49:39;14.80;;;8.80;;
65658;SDS011;60181;53.258;6.932;2022-09-12T02:54:07;14.80;;;8.80;;
65658;SDS011;60181;53.258;6.932;2022-09-12T02:58:35;14.90;;;8.50;;
65658;SDS011;60181;53.258;6.932;2022-09-12T03:21:02;15.70;;;9.50;;
65658;SDS011;60181;53.258;6.932;2022-09-12T03:25:33;15.70;;;9.50;;
65658;SDS011;60181;53.258;6.932;2022-09-12T03:29:51;14.40;;;9.40;;
65658;SDS011;60181;53.258;6.932;2022-09-12T03:34:19;14.40;;;9.40;;
65658;SDS011;60181;53.258;6.932;2022-09-12T03:38:47;14.70;;;9.40;;
65658;SDS011;60181;53.258;6.932;2022-09-12T03:43:15;14.70;;;9.40;;
65658;SDS011;60181;53.258;6.932;2022-09-12T03:47:43;18.40;;;10.80;;
65658;SDS011;60181;53.258;6.932;2022-09-12T03:52:11;18.40;;;10.80;;
65658;SDS011;60181;53.258;6.932;2022-09-12T03:56:39;18.40;;;10.80;;
65658;SDS011;60181;53.258;6.932;2022-09-12T04:01:08;17.20;;;10.80;;
65658;SDS011;60181;53.258;6.932;2022-09-12T04:05:35;17.20;;;10.80;;
65658;SDS011;60181;53.258;6.932;2022-09-12T04:10:03;15.60;;;8.50;;
65658;SDS011;60181;53.258;6.932;2022-09-12T04:14:31;15.60;;;8.50;;
65658;SDS011;60181;53.258;6.932;2022-09-12T04:18:59;15.60;;;8.50;;
65658;SDS011;60181;53.258;6.932;2022-09-12T04:23:27;15.60;;;8.50;;
65658;SDS011;60181;53.258;6.932;2022-09-12T04:27:55;8.30;;;4.60;;
65658;SDS011;60181;53.258;6.932;2022-09-12T04:32:23;8.30;;;4.60;;
65658;SDS011;60181;53.258;6.932;2022-09-12T04:36:51;8.30;;;4.60;;
65658;SDS011;60181;53.258;6.932;2022-09-12T04:41:20;17.10;;;4.30;;
65658;SDS011;60181;53.258;6.932;2022-09-12T04:45:47;17.10;;;4.30;;
65658;SDS011;60181;53.258;6.932;2022-09-12T04:50:15;8.50;;;3.80;;
65658;SDS011;60181;53.258;6.932;2022-09-12T04:54:43;8.50;;;3.80;;
65658;SDS011;60181;53.258;6.932;2022-09-12T04:59:11;10.20;;;3.80;;
65658;SDS011;60181;53.258;6.932;2022-09-12T05:03:39;10.20;;;3.80;;
65658;SDS011;60181;53.258;6.932;2022-09-12T05:08:07;7.60;;;3.70;;
65658;SDS011;60181;53.258;6.932;2022-09-12T05:12:35;7.60;;;3.70;;
65658;SDS011;60181;53.258;6.932;2022-09-12T05:17:03;7.60;;;3.70;;
65658;SDS011;60181;53.258;6.932;2022-09-12T05:21:31;7.60;;;3.70;;
65658;SDS011;60181;53.258;6.932;2022-09-12T05:25:59;7.60;;;3.70;;
65658;SDS011;60181;53.258;6.932;2022-09-12T05:30:27;6.00;;;3.40;;
65658;SDS011;60181;53.258;6.932;2022-09-12T05:34:55;6.00;;;3.40;;
65658;SDS011;60181;53.258;6.932;2022-09-12T05:39:23;7.30;;;3.60;;
65658;SDS011;60181;53.258;6.932;2022-09-12T05:43:54;7.30;;;3.60;;
65658;SDS011;60181;53.258;6.932;2022-09-12T05:48:19;8.60;;;3.70;;
65658;SDS011;60181;53.258;6.932;2022-09-12T05:52:47;8.60;;;3.70;;
65658;SDS011;60181;53.258;6.932;2022-09-12T05:57:15;19.30;;;5.20;;
65658;SDS011;60181;53.258;6.932;2022-09-12T06:01:43;19.30;;;5.20;;
65658;SDS011;60181;53.258;6.932;2022-09-12T06:06:11;19.30;;;5.20;;
65658;SDS011;60181;53.258;6.932;2022-09-12T06:10:38;20.10;;;5.00;;
65658;SDS011;60181;53.258;6.932;2022-09-12T06:15:07;20.10;;;5.00;;
65658;SDS011;60181;53.258;6.932;2022-09-12T06:19:34;16.40;;;5.20;;
65658;SDS011;60181;53.258;6.932;2022-09-12T06:24:03;16.40;;;5.20;;
65658;SDS011;60181;53.258;6.932;2022-09-12T06:28:31;12.30;;;5.20;;
65658;SDS011;60181;53.258;6.932;2022-09-12T06:32:58;12.30;;;5.20;;
65658;SDS011;60181;53.258;6.932;2022-09-12T06:37:26;15.40;;;4.90;;
65658;SDS011;60181;53.258;6.932;2022-09-12T06:41:54;15.40;;;4.90;;
65658;SDS011;60181;53.258;6.932;2022-09-12T06:46:23;15.40;;;4.90;;
65658;SDS011;60181;53.258;6.932;2022-09-12T06:50:54;12.00;;;4.90;;
65658;SDS011;60181;53.258;6.932;2022-09-12T06:55:18;12.00;;;4.90;;
65658;SDS011;60181;53.258;6.932;2022-09-12T06:59:46;10.50;;;4.60;;
65658;SDS011;60181;53.258;6.932;2022-09-12T07:04:15;10.50;;;4.60;;
65658;SDS011;60181;53.258;6.932;2022-09-12T07:08:42;12.20;;;4.40;;
65658;SDS011;60181;53.258;6.932;2022-09-12T07:13:10;12.20;;;4.40;;
65658;SDS011;60181;53.258;6.932;2022-09-12T07:17:38;8.30;;;4.30;;
65658;SDS011;60181;53.258;6.932;2022-09-12T07:22:06;8.30;;;4.30;;
65658;SDS011;60181;53.258;6.932;2022-09-12T07:26:34;8.30;;;4.30;;
65658;SDS011;60181;53.258;6.932;2022-09-12T07:31:06;9.20;;;4.50;;
65658;SDS011;60181;53.258;6.932;2022-09-12T07:35:31;9.20;;;4.50;;
65658;SDS011;60181;53.258;6.932;2022-09-12T07:39:58;8.70;;;4.30;;
65658;SDS011;60181;53.258;6.932;2022-09-12T07:44:26;8.70;;;4.30;;
65658;SDS011;60181;53.258;6.932;2022-09-12T07:48:55;9.40;;;4.00;;
65658;SDS011;60181;53.258;6.932;2022-09-12T07:53:22;9.40;;;4.00;;
65658;SDS011;60181;53.258;6.932;2022-09-12T07:57:51;8.10;;;4.00;;
65658;SDS011;60181;53.258;6.932;2022-09-12T08:02:18;8.10;;;4.00;;
65658;SDS011;60181;53.258;6.932;2022-09-12T08:06:46;8.10;;;4.00;;
65658;SDS011;60181;53.258;6.932;2022-09-12T08:11:15;9.30;;;4.00;;
65658;SDS011;60181;53.258;6.932;2022-09-12T08:15:42;9.30;;;4.00;;
65658;SDS011;60181;53.258;6.932;2022-09-12T08:20:10;7.20;;;4.10;;
65658;SDS011;60181;53.258;6.932;2022-09-12T08:24:38;7.20;;;4.10;;
65658;SDS011;60181;53.258;6.932;2022-09-12T08:29:06;9.00;;;4.20;;
65658;SDS011;60181;53.258;6.932;2022-09-12T08:33:34;9.00;;;4.20;;
65658;SDS011;60181;53.258;6.932;2022-09-12T08:38:02;7.80;;;4.20;;
65658;SDS011;60181;53.258;6.932;2022-09-12T08:51:26;8.00;;;4.10;;
65658;SDS011;60181;53.258;6.932;2022-09-12T08:55:58;8.00;;;4.10;;
65658;SDS011;60181;53.258;6.932;2022-09-12T09:00:22;7.80;;;4.10;;
65658;SDS011;60181;53.258;6.932;2022-09-12T09:04:51;7.80;;;4.10;;
65658;SDS011;60181;53.258;6.932;2022-09-12T09:09:28;6.80;;;4.30;;
65658;SDS011;60181;53.258;6.932;2022-09-12T09:18:18;8.60;;;4.10;;
65658;SDS011;60181;53.258;6.932;2022-09-12T09:22:49;8.60;;;4.10;;
65658;SDS011;60181;53.258;6.932;2022-09-12T09:27:23;7.10;;;4.30;;
65658;SDS011;60181;53.258;6.932;2022-09-12T09:31:38;7.10;;;4.30;;
65658;SDS011;60181;53.258;6.932;2022-09-12T09:45:09;7.80;;;4.30;;
65658;SDS011;60181;53.258;6.932;2022-09-12T09:49:31;8.90;;;4.20;;
65658;SDS011;60181;53.258;6.932;2022-09-12T09:54:09;8.90;;;4.20;;
65658;SDS011;60181;53.258;6.932;2022-09-12T09:58:35;9.30;;;4.00;;
65658;SDS011;60181;53.258;6.932;2022-09-12T10:03:05;9.30;;;4.00;;
65658;SDS011;60181;53.258;6.932;2022-09-12T10:07:22;7.80;;;4.10;;
65658;SDS011;60181;53.258;6.932;2022-09-12T10:11:51;7.80;;;4.10;;
65658;SDS011;60181;53.258;6.932;2022-09-12T10:20:46;8.40;;;4.00;;
65658;SDS011;60181;53.258;6.932;2022-09-12T10:25:14;8.40;;;4.00;;
65658;SDS011;60181;53.258;6.932;2022-09-12T10:29:49;9.50;;;4.20;;
65658;SDS011;60181;53.258;6.932;2022-09-12T10:34:20;9.50;;;4.20;;
65658;SDS011;60181;53.258;6.932;2022-09-12T10:38:39;8.40;;;4.10;;
65658;SDS011;60181;53.258;6.932;2022-09-12T10:43:15;8.40;;;4.10;;
65658;SDS011;60181;53.258;6.932;2022-09-12T10:47:34;7.90;;;4.20;;
65658;SDS011;60181;53.258;6.932;2022-09-12T11:01:02;7.90;;;4.20;;
65658;SDS011;60181;53.258;6.932;2022-09-12T11:05:34;7.90;;;4.20;;
65658;SDS011;60181;53.258;6.932;2022-09-12T11:23:27;8.20;;;4.30;;
65658;SDS011;60181;53.258;6.932;2022-09-12T11:27:53;7.50;;;4.20;;
65658;SDS011;60181;53.258;6.932;2022-09-12T11:36:50;7.50;;;4.20;;
65658;SDS011;60181;53.258;6.932;2022-09-12T11:41:14;9.00;;;4.70;;
65658;SDS011;60181;53.258;6.932;2022-09-12T11:45:42;9.00;;;4.70;;
65658;SDS011;60181;53.258;6.932;2022-09-12T11:50:14;8.00;;;4.60;;
65658;SDS011;60181;53.258;6.932;2022-09-12T11:59:03;8.80;;;4.80;;
65658;SDS011;60181;53.258;6.932;2022-09-12T12:03:39;8.80;;;4.80;;
65658;SDS011;60181;53.258;6.932;2022-09-12T12:07:59;7.50;;;4.60;;
65658;SDS011;60181;53.258;6.932;2022-09-12T12:12:26;7.50;;;4.60;;
65658;SDS011;60181;53.258;6.932;2022-09-12T12:16:54;7.50;;;4.60;;
65658;SDS011;60181;53.258;6.932;2022-09-12T12:25:51;7.50;;;4.90;;
65658;SDS011;60181;53.258;6.932;2022-09-12T12:34:46;10.20;;;5.20;;
65658;SDS011;60181;53.258;6.932;2022-09-12T12:43:46;8.50;;;5.10;;
65658;SDS011;60181;53.258;6.932;2022-09-12T12:48:12;12.60;;;5.60;;
65658;SDS011;60181;53.258;6.932;2022-09-12T12:52:47;12.60;;;5.60;;
65658;SDS011;60181;53.258;6.932;2022-09-12T12:57:16;26.90;;;13.70;;
65658;SDS011;60181;53.258;6.932;2022-09-12T13:01:34;26.90;;;13.70;;
65658;SDS011;60181;53.258;6.932;2022-09-12T13:06:04;26.90;;;13.70;;
65658;SDS011;60181;53.258;6.932;2022-09-12T13:10:30;32.90;;;16.00;;
65658;SDS011;60181;53.258;6.932;2022-09-12T13:14:59;32.90;;;16.00;;
65658;SDS011;60181;53.258;6.932;2022-09-12T13:19:27;35.10;;;16.80;;
65658;SDS011;60181;53.258;6.932;2022-09-12T13:24:04;35.10;;;16.80;;
65658;SDS011;60181;53.258;6.932;2022-09-12T13:28:22;33.00;;;15.80;;
65658;SDS011;60181;53.258;6.932;2022-09-12T13:32:50;33.00;;;15.80;;
65658;SDS011;60181;53.258;6.932;2022-09-12T13:46:15;31.10;;;15.50;;
65658;SDS011;60181;53.258;6.932;2022-09-12T13:50:47;30.70;;;15.20;;
65658;SDS011;60181;53.258;6.932;2022-09-12T13:55:17;30.70;;;15.20;;
65658;SDS011;60181;53.258;6.932;2022-09-12T13:59:39;28.40;;;14.90;;
65658;SDS011;60181;53.258;6.932;2022-09-12T14:04:16;28.40;;;14.90;;
65658;SDS011;60181;53.258;6.932;2022-09-12T14:08:34;30.70;;;15.00;;
65658;SDS011;60181;53.258;6.932;2022-09-12T14:13:09;30.70;;;15.00;;
65658;SDS011;60181;53.258;6.932;2022-09-12T14:17:33;25.20;;;13.80;;
65658;SDS011;60181;53.258;6.932;2022-09-12T14:21:58;25.20;;;13.80;;
65658;SDS011;60181;53.258;6.932;2022-09-12T14:26:26;25.20;;;13.80;;
65658;SDS011;60181;53.258;6.932;2022-09-12T14:31:04;24.70;;;12.90;;
65658;SDS011;60181;53.258;6.932;2022-09-12T14:35:22;24.70;;;12.90;;
65658;SDS011;60181;53.258;6.932;2022-09-12T14:39:50;24.50;;;13.20;;
65658;SDS011;60181;53.258;6.932;2022-09-12T14:44:19;24.50;;;13.20;;
65658;SDS011;60181;53.258;6.932;2022-09-12T14:48:52;26.00;;;13.30;;
65658;SDS011;60181;53.258;6.932;2022-09-12T14:53:22;26.00;;;13.30;;
65658;SDS011;60181;53.258;6.932;2022-09-12T14:57:42;23.70;;;13.10;;
65658;SDS011;60181;53.258;6.932;2022-09-12T15:02:14;23.70;;;13.10;;
65658;SDS011;60181;53.258;6.932;2022-09-12T15:06:38;23.70;;;13.10;;
65658;SDS011;60181;53.258;6.932;2022-09-12T15:11:06;25.00;;;12.80;;
65658;SDS011;60181;53.258;6.932;2022-09-12T15:15:34;25.00;;;12.80;;
65658;SDS011;60181;53.258;6.932;2022-09-12T15:20:02;23.90;;;12.80;;
65658;SDS011;60181;53.258;6.932;2022-09-12T15:24:30;23.90;;;12.80;;
65658;SDS011;60181;53.258;6.932;2022-09-12T15:28:58;23.60;;;12.30;;
65658;SDS011;60181;53.258;6.932;2022-09-12T15:33:26;23.60;;;12.30;;
65658;SDS011;60181;53.258;6.932;2022-09-12T15:37:54;40.20;;;17.10;;
65658;SDS011;60181;53.258;6.932;2022-09-12T15:42:24;40.20;;;17.10;;
65658;SDS011;60181;53.258;6.932;2022-09-12T15:46:50;40.20;;;17.10;;
65658;SDS011;60181;53.258;6.932;2022-09-12T15:51:19;74.50;;;29.90;;
65658;SDS011;60181;53.258;6.932;2022-09-12T15:55:46;74.50;;;29.90;;
65658;SDS011;60181;53.258;6.932;2022-09-12T16:00:15;74.40;;;26.30;;
65658;SDS011;60181;53.258;6.932;2022-09-12T16:04:42;74.40;;;26.30;;
65658;SDS011;60181;53.258;6.932;2022-09-12T16:09:10;60.00;;;24.00;;
65658;SDS011;60181;53.258;6.932;2022-09-12T16:13:38;60.00;;;24.00;;
65658;SDS011;60181;53.258;6.932;2022-09-12T16:18:06;55.20;;;22.10;;
65658;SDS011;60181;53.258;6.932;2022-09-12T16:22:34;55.20;;;22.10;;
65658;SDS011;60181;53.258;6.932;2022-09-12T16:27:02;55.20;;;22.10;;
65658;SDS011;60181;53.258;6.932;2022-09-12T16:31:30;46.30;;;20.20;;
65658;SDS011;60181;53.258;6.932;2022-09-12T16:36:02;46.30;;;20.20;;
65658;SDS011;60181;53.258;6.932;2022-09-12T16:40:26;44.30;;;17.90;;
65658;SDS011;60181;53.258;6.932;2022-09-12T16:44:54;44.30;;;17.90;;
65658;SDS011;60181;53.258;6.932;2022-09-12T16:49:22;40.80;;;17.60;;
65658;SDS011;60181;53.258;6.932;2022-09-12T16:53:50;40.80;;;17.60;;
65658;SDS011;60181;53.258;6.932;2022-09-12T16:58:18;42.20;;;17.50;;
65658;SDS011;60181;53.258;6.932;2022-09-12T17:02:46;42.20;;;17.50;;
65658;SDS011;60181;53.258;6.932;2022-09-12T17:07:14;37.60;;;16.50;;
65658;SDS011;60181;53.258;6.932;2022-09-12T17:11:42;37.60;;;16.50;;
65658;SDS011;60181;53.258;6.932;2022-09-12T17:16:10;37.60;;;16.50;;
65658;SDS011;60181;53.258;6.932;2022-09-12T17:20:38;39.20;;;17.30;;
65658;SDS011;60181;53.258;6.932;2022-09-12T17:25:06;39.20;;;17.30;;
65658;SDS011;60181;53.258;6.932;2022-09-12T17:29:34;37.20;;;16.00;;
65658;SDS011;60181;53.258;6.932;2022-09-12T17:34:02;37.20;;;16.00;;
65658;SDS011;60181;53.258;6.932;2022-09-12T17:38:30;39.50;;;16.90;;
65658;SDS011;60181;53.258;6.932;2022-09-12T17:42:58;39.50;;;16.90;;
65658;SDS011;60181;53.258;6.932;2022-09-12T17:47:26;33.00;;;15.60;;
65658;SDS011;60181;53.258;6.932;2022-09-12T17:51:54;33.00;;;15.60;;
65658;SDS011;60181;53.258;6.932;2022-09-12T17:56:21;33.00;;;15.60;;
65658;SDS011;60181;53.258;6.932;2022-09-12T18:00:50;32.10;;;14.90;;
65658;SDS011;60181;53.258;6.932;2022-09-12T18:05:17;32.10;;;14.90;;
65658;SDS011;60181;53.258;6.932;2022-09-12T18:09:45;32.00;;;15.10;;
65658;SDS011;60181;53.258;6.932;2022-09-12T18:14:14;32.00;;;15.10;;
65658;SDS011;60181;53.258;6.932;2022-09-12T18:18:41;30.80;;;14.90;;
65658;SDS011;60181;53.258;6.932;2022-09-12T18:23:09;30.80;;;14.90;;
65658;SDS011;60181;53.258;6.932;2022-09-12T18:27:37;29.50;;;14.60;;
65658;SDS011;60181;53.258;6.932;2022-09-12T18:32:05;29.50;;;14.60;;
65658;SDS011;60181;53.258;6.932;2022-09-12T18:36:34;29.50;;;14.60;;
65658;SDS011;60181;53.258;6.932;2022-09-12T18:41:05;31.70;;;13.90;;
65658;SDS011;60181;53.258;6.932;2022-09-12T18:45:29;31.70;;;13.90;;
65658;SDS011;60181;53.258;6.932;2022-09-12T18:49:57;30.00;;;14.00;;
65658;SDS011;60181;53.258;6.932;2022-09-12T18:54:25;30.00;;;14.00;;
65658;SDS011;60181;53.258;6.932;2022-09-12T18:58:54;29.90;;;13.70;;
65658;SDS011;60181;53.258;6.932;2022-09-12T19:03:21;29.90;;;13.70;;
65658;SDS011;60181;53.258;6.932;2022-09-12T19:07:49;27.50;;;13.80;;
65658;SDS011;60181;53.258;6.932;2022-09-12T19:12:17;27.50;;;13.80;;
65658;SDS011;60181;53.258;6.932;2022-09-12T19:16:45;27.50;;;13.80;;
65658;SDS011;60181;53.258;6.932;2022-09-12T19:21:23;25.90;;;13.40;;
65658;SDS011;60181;53.258;6.932;2022-09-12T19:25:41;25.90;;;13.40;;
65658;SDS011;60181;53.258;6.932;2022-09-12T19:30:10;27.40;;;13.00;;
65658;SDS011;60181;53.258;6.932;2022-09-12T19:34:37;27.40;;;13.00;;
65658;SDS011;60181;53.258;6.932;2022-09-12T19:39:06;23.20;;;12.30;;
65658;SDS011;60181;53.258;6.932;2022-09-12T19:43:33;23.20;;;12.30;;
65658;SDS011;60181;53.258;6.932;2022-09-12T19:48:01;24.60;;;12.50;;
65658;SDS011;60181;53.258;6.932;2022-09-12T19:52:29;24.60;;;12.50;;
65658;SDS011;60181;53.258;6.932;2022-09-12T19:56:57;24.60;;;12.50;;
65658;SDS011;60181;53.258;6.932;2022-09-12T20:01:26;22.50;;;11.90;;
65658;SDS011;60181;53.258;6.932;2022-09-12T20:05:53;22.50;;;11.90;;
65658;SDS011;60181;53.258;6.932;2022-09-12T20:10:21;22.50;;;11.90;;
65658;SDS011;60181;53.258;6.932;2022-09-12T20:14:49;22.50;;;11.90;;
65658;SDS011;60181;53.258;6.932;2022-09-12T20:19:17;22.90;;;11.50;;
65658;SDS011;60181;53.258;6.932;2022-09-12T20:23:45;22.90;;;11.50;;
65658;SDS011;60181;53.258;6.932;2022-09-12T20:28:13;20.20;;;11.20;;
65658;SDS011;60181;53.258;6.932;2022-09-12T20:32:41;20.20;;;11.20;;
65658;SDS011;60181;53.258;6.932;2022-09-12T20:37:09;20.10;;;11.50;;
65658;SDS011;60181;53.258;6.932;2022-09-12T20:41:37;20.10;;;11.50;;
65658;SDS011;60181;53.258;6.932;2022-09-12T20:46:06;20.10;;;11.50;;
65658;SDS011;60181;53.258;6.932;2022-09-12T20:50:33;21.20;;;10.70;;
65658;SDS011;60181;53.258;6.932;2022-09-12T20:55:01;21.20;;;10.70;;
65658;SDS011;60181;53.258;6.932;2022-09-12T20:59:29;19.80;;;10.20;;
65658;SDS011;60181;53.258;6.932;2022-09-12T21:03:58;19.80;;;10.20;;
65658;SDS011;60181;53.258;6.932;2022-09-12T21:08:25;19.20;;;10.20;;
65658;SDS011;60181;53.258;6.932;2022-09-12T21:12:53;19.20;;;10.20;;
65658;SDS011;60181;53.258;6.932;2022-09-12T21:17:21;19.20;;;10.60;;
65658;SDS011;60181;53.258;6.932;2022-09-12T21:21:49;19.20;;;10.60;;
65658;SDS011;60181;53.258;6.932;2022-09-12T21:26:17;19.20;;;10.60;;
65658;SDS011;60181;53.258;6.932;2022-09-12T21:30:48;19.20;;;10.10;;
65658;SDS011;60181;53.258;6.932;2022-09-12T21:35:13;19.20;;;10.10;;
65658;SDS011;60181;53.258;6.932;2022-09-12T21:39:41;20.50;;;10.20;;
65658;SDS011;60181;53.258;6.932;2022-09-12T21:44:09;20.50;;;10.20;;
65658;SDS011;60181;53.258;6.932;2022-09-12T21:48:37;19.10;;;9.90;;
65658;SDS011;60181;53.258;6.932;2022-09-12T21:53:05;19.10;;;9.90;;
65658;SDS011;60181;53.258;6.932;2022-09-12T21:57:33;17.90;;;10.30;;
65658;SDS011;60181;53.258;6.932;2022-09-12T22:02:01;17.90;;;10.30;;
65658;SDS011;60181;53.258;6.932;2022-09-12T22:06:29;17.90;;;10.30;;
65658;SDS011;60181;53.258;6.932;2022-09-12T22:10:58;17.90;;;10.30;;
65658;SDS011;60181;53.258;6.932;2022-09-12T22:15:25;17.90;;;10.30;;
65658;SDS011;60181;53.258;6.932;2022-09-12T22:19:53;18.40;;;10.50;;
65658;SDS011;60181;53.258;6.932;2022-09-12T22:24:22;18.40;;;10.50;;
65658;SDS011;60181;53.258;6.932;2022-09-12T22:28:49;18.40;;;10.50;;
65658;SDS011;60181;53.258;6.932;2022-09-12T22:33:17;18.40;;;10.50;;
65658;SDS011;60181;53.258;6.932;2022-09-12T22:37:45;14.60;;;9.60;;
65658;SDS011;60181;53.258;6.932;2022-09-12T22:42:13;14.60;;;9.60;;
65658;SDS011;60181;53.258;6.932;2022-09-12T22:46:41;14.60;;;9.60;;
65658;SDS011;60181;53.258;6.932;2022-09-12T22:51:09;16.40;;;10.20;;
65658;SDS011;60181;53.258;6.932;2022-09-12T22:55:37;16.40;;;10.20;;
65658;SDS011;60181;53.258;6.932;2022-09-12T23:00:06;14.90;;;9.40;;
65658;SDS011;60181;53.258;6.932;2022-09-12T23:04:33;14.90;;;9.40;;
65658;SDS011;60181;53.258;6.932;2022-09-12T23:09:01;17.10;;;10.00;;
65658;SDS011;60181;53.258;6.932;2022-09-12T23:13:29;17.10;;;10.00;;
65658;SDS011;60181;53.258;6.932;2022-09-12T23:17:57;19.00;;;9.90;;
65658;SDS011;60181;53.258;6.932;2022-09-12T23:22:25;19.00;;;9.90;;
65658;SDS011;60181;53.258;6.932;2022-09-12T23:26:53;19.00;;;9.90;;
65658;SDS011;60181;53.258;6.932;2022-09-12T23:31:22;20.60;;;10.70;;
65658;SDS011;60181;53.258;6.932;2022-09-12T23:35:49;20.60;;;10.70;;
65658;SDS011;60181;53.258;6.932;2022-09-12T23:40:17;18.10;;;10.30;;
65658;SDS011;60181;53.258;6.932;2022-09-12T23:44:45;18.10;;;10.30;;
65658;SDS011;60181;53.258;6.932;2022-09-12T23:49:13;17.30;;;10.30;;
65658;SDS011;60181;53.258;6.932;2022-09-12T23:53:41;17.30;;;10.30;;
65658;SDS011;60181;53.258;6.932;2022-09-12T23:58:09;19.90;;;10.00;;
